createdAt,value
2022-09-26T00:00:21.995Z,17.74
2022-09-26T00:02:49.239Z,17.56
2022-09-26T00:05:16.143Z,17.85
2022-09-26T00:07:42.819Z,17.93
2022-09-26T00:10:09.788Z,17.80
2022-09-26T00:12:36.758Z,17.73
2022-09-26T00:15:03.675Z,17.75
2022-09-26T00:17:31.844Z,17.75
2022-09-26T00:19:58.554Z,17.85
2022-09-26T00:22:25.215Z,17.76
2022-09-26T00:24:52.327Z,17.92
2022-09-26T00:27:20.407Z,17.74
2022-09-26T00:29:47.863Z,17.76
2022-09-26T00:32:14.846Z,17.82
2022-09-26T00:34:41.528Z,17.94
2022-09-26T00:37:08.222Z,17.83
2022-09-26T00:39:35.256Z,17.88
2022-09-26T00:42:01.974Z,17.79
2022-09-26T00:44:49.542Z,17.64
2022-09-26T00:47:16.463Z,17.73
2022-09-26T00:49:43.693Z,17.73
2022-09-26T00:52:15.875Z,17.88
2022-09-26T00:54:45.366Z,18.05
2022-09-26T00:57:13.160Z,17.67
2022-09-26T00:59:41.982Z,17.76
2022-09-26T01:02:09.441Z,17.75
2022-09-26T01:04:38.133Z,17.79
2022-09-26T01:07:06.203Z,17.81
2022-09-26T01:09:33.314Z,17.90
2022-09-26T01:12:00.603Z,17.71
2022-09-26T01:14:27.836Z,17.64
2022-09-26T01:16:54.898Z,17.62
2022-09-26T01:19:21.568Z,17.90
2022-09-26T01:22:06.678Z,17.74
2022-09-26T01:25:09.292Z,17.71
2022-09-26T01:27:38.928Z,17.61
2022-09-26T01:30:08.796Z,17.87
2022-09-26T01:32:51.379Z,17.75
2022-09-26T01:35:22.645Z,17.62
2022-09-26T01:37:49.401Z,17.76
2022-09-26T01:40:17.992Z,17.76
2022-09-26T01:42:47.946Z,17.88
2022-09-26T01:45:18.480Z,17.80
2022-09-26T01:47:47.670Z,17.87
2022-09-26T01:50:18.317Z,17.60
2022-09-26T01:52:50.837Z,17.73
2022-09-26T01:55:26.966Z,17.74
2022-09-26T01:57:56.410Z,17.69
2022-09-26T02:00:23.100Z,17.83
2022-09-26T02:02:50.201Z,17.84
2022-09-26T02:05:46.788Z,17.84
2022-09-26T02:08:15.877Z,17.87
2022-09-26T02:10:56.159Z,17.89
2022-09-26T02:13:27.972Z,17.75
2022-09-26T02:15:56.425Z,17.72
2022-09-26T02:18:26.287Z,17.74
2022-09-26T02:20:55.778Z,17.53
2022-09-26T02:23:22.546Z,17.36
2022-09-26T02:25:49.481Z,17.39
2022-09-26T02:28:16.269Z,17.29
2022-09-26T02:30:43.511Z,17.44
2022-09-26T02:33:10.474Z,17.57
2022-09-26T02:35:55.607Z,17.13
2022-09-26T02:38:27.479Z,17.42
2022-09-26T02:41:07.716Z,17.63
2022-09-26T02:43:34.672Z,17.70
2022-09-26T02:46:19.582Z,17.76
2022-09-26T02:48:55.865Z,17.52
2022-09-26T02:51:26.898Z,17.65
2022-09-26T02:54:14.048Z,17.78
2022-09-26T02:56:41.007Z,17.66
2022-09-26T02:59:35.139Z,17.77
2022-09-26T03:02:07.569Z,17.88
2022-09-26T03:04:47.445Z,17.91
2022-09-26T03:07:16.933Z,17.88
2022-09-26T03:09:43.973Z,17.80
2022-09-26T03:12:11.685Z,17.69
2022-09-26T03:14:39.476Z,17.72
2022-09-26T03:17:06.653Z,17.66
2022-09-26T03:19:41.829Z,17.80
2022-09-26T03:22:09.245Z,17.73
2022-09-26T03:24:37.004Z,18.00
2022-09-26T03:27:05.166Z,17.92
2022-09-26T03:29:32.935Z,17.90
2022-09-26T03:32:01.181Z,17.73
2022-09-26T03:34:28.028Z,17.71
2022-09-26T03:36:55.646Z,17.60
2022-09-26T03:39:23.278Z,17.83
2022-09-26T03:41:50.215Z,17.70
2022-09-26T03:44:17.533Z,17.78
2022-09-26T03:46:52.320Z,17.99
2022-09-26T03:49:19.287Z,17.75
2022-09-26T03:51:46.078Z,17.75
2022-09-26T03:54:13.106Z,17.76
2022-09-26T03:56:41.243Z,17.52
2022-09-26T03:59:08.393Z,17.73
2022-09-26T04:01:35.539Z,17.83
2022-09-26T04:04:02.749Z,17.92
2022-09-26T04:06:30.117Z,17.58
2022-09-26T04:08:59.041Z,17.69
2022-09-26T04:11:26.943Z,17.70
2022-09-26T04:13:54.190Z,17.62
2022-09-26T04:16:22.792Z,17.69
2022-09-26T04:18:56.691Z,17.47
2022-09-26T04:21:24.593Z,17.54
2022-09-26T04:23:52.863Z,17.71
2022-09-26T04:26:23.419Z,17.69
2022-09-26T04:28:55.070Z,17.74
2022-09-26T04:31:23.250Z,17.58
2022-09-26T04:33:50.542Z,17.63
2022-09-26T04:36:17.672Z,17.53
2022-09-26T04:38:46.095Z,17.61
2022-09-26T04:41:15.115Z,17.69
2022-09-26T04:43:42.199Z,17.71
2022-09-26T04:46:10.819Z,17.63
2022-09-26T04:48:37.964Z,17.64
2022-09-26T04:51:07.203Z,17.67
2022-09-26T04:53:34.761Z,17.71
2022-09-26T04:56:02.142Z,17.68
2022-09-26T04:58:32.575Z,17.39
2022-09-26T05:01:03.832Z,17.30
2022-09-26T05:03:33.231Z,17.61
2022-09-26T05:06:01.585Z,17.67
2022-09-26T05:08:28.363Z,17.69
2022-09-26T05:10:56.130Z,17.67
2022-09-26T05:13:23.573Z,17.60
2022-09-26T05:15:53.259Z,17.69
2022-09-26T05:18:20.998Z,18.01
2022-09-26T05:20:48.343Z,17.60
2022-09-26T05:23:43.657Z,17.65
2022-09-26T05:26:21.219Z,17.64
2022-09-26T05:28:48.991Z,17.81
2022-09-26T05:31:16.492Z,17.78
2022-09-26T05:33:44.657Z,17.69
2022-09-26T05:36:11.568Z,17.81
2022-09-26T05:38:40.396Z,17.76
2022-09-26T05:41:07.245Z,17.80
2022-09-26T05:43:34.970Z,17.86
2022-09-26T05:46:06.307Z,17.76
2022-09-26T05:48:34.414Z,17.76
2022-09-26T05:51:21.130Z,18.01
2022-09-26T05:53:48.554Z,17.86
2022-09-26T05:56:19.001Z,17.68
2022-09-26T05:58:48.177Z,17.78
2022-09-26T06:01:18.793Z,17.84
2022-09-26T06:03:46.661Z,17.75
2022-09-26T06:06:14.986Z,17.85
2022-09-26T06:08:42.150Z,17.99
2022-09-26T06:11:10.789Z,17.86
2022-09-26T06:13:37.757Z,17.80
2022-09-26T06:16:06.566Z,17.75
2022-09-26T06:18:36.828Z,17.85
2022-09-26T06:21:04.164Z,17.92
2022-09-26T06:23:31.833Z,17.91
2022-09-26T06:26:00.318Z,17.97
2022-09-26T06:28:27.466Z,17.80
2022-09-26T06:30:54.411Z,17.76
2022-09-26T06:33:23.209Z,17.98
2022-09-26T06:36:04.254Z,18.02
2022-09-26T06:38:31.438Z,18.02
2022-09-26T06:41:03.997Z,17.91
2022-09-26T06:43:32.157Z,17.94
2022-09-26T06:46:00.167Z,18.03
2022-09-26T06:48:27.646Z,17.99
2022-09-26T06:50:57.066Z,17.94
2022-09-26T06:53:24.246Z,18.00
2022-09-26T06:55:50.978Z,17.97
2022-09-26T06:58:18.171Z,18.18
2022-09-26T07:00:46.902Z,18.19
2022-09-26T07:03:15.564Z,18.30
2022-09-26T07:05:45.226Z,17.98
2022-09-26T07:08:12.192Z,18.13
2022-09-26T07:10:38.897Z,17.96
2022-09-26T07:13:06.573Z,18.09
2022-09-26T07:15:34.431Z,18.15
2022-09-26T07:18:03.068Z,18.24
2022-09-26T07:20:34.835Z,18.24
2022-09-26T07:23:02.850Z,18.29
2022-09-26T07:25:31.950Z,18.17
2022-09-26T07:27:59.830Z,18.25
2022-09-26T07:30:28.312Z,18.38
2022-09-26T07:33:03.124Z,18.52
2022-09-26T07:35:34.113Z,18.44
2022-09-26T07:38:00.961Z,18.59
2022-09-26T07:40:27.938Z,18.63
2022-09-26T07:43:18.502Z,18.36
2022-09-26T07:46:04.314Z,18.30
2022-09-26T07:48:49.997Z,18.40
2022-09-26T07:51:19.865Z,18.45
2022-09-26T07:53:47.291Z,18.59
2022-09-26T07:56:16.508Z,18.37
2022-09-26T07:58:43.498Z,18.31
2022-09-26T08:01:11.554Z,18.32
2022-09-26T08:03:44.532Z,18.49
2022-09-26T08:06:14.756Z,18.70
2022-09-26T08:08:43.323Z,18.59
2022-09-26T08:11:13.345Z,18.43
2022-09-26T08:13:43.335Z,18.26
2022-09-26T08:16:10.858Z,18.37
2022-09-26T08:18:38.221Z,18.66
2022-09-26T08:21:05.785Z,18.76
2022-09-26T08:23:33.620Z,18.41
2022-09-26T08:26:06.897Z,18.41
2022-09-26T08:28:34.610Z,18.63
2022-09-26T08:31:03.023Z,18.35
2022-09-26T08:33:30.642Z,18.65
2022-09-26T08:36:02.562Z,18.71
2022-09-26T08:38:30.570Z,18.94
2022-09-26T08:41:01.802Z,18.80
2022-09-26T08:43:51.689Z,18.95
2022-09-26T08:46:38.845Z,18.84
2022-09-26T08:49:19.130Z,18.88
2022-09-26T08:51:46.933Z,18.58
2022-09-26T08:54:23.921Z,18.90
2022-09-26T08:56:52.519Z,19.28
2022-09-26T08:59:25.306Z,19.06
2022-09-26T09:01:52.748Z,19.26
2022-09-26T09:04:25.062Z,19.72
2022-09-26T09:06:53.744Z,19.67
2022-09-26T09:09:20.884Z,19.55
2022-09-26T09:11:50.870Z,19.58
2022-09-26T09:14:21.201Z,19.43
2022-09-26T09:17:02.700Z,19.14
2022-09-26T09:19:48.876Z,19.27
2022-09-26T09:22:38.949Z,19.45
2022-09-26T09:25:08.997Z,19.57
2022-09-26T09:27:58.532Z,19.81
2022-09-26T09:30:30.977Z,19.53
2022-09-26T09:33:08.834Z,19.93
2022-09-26T09:35:39.161Z,19.72
2022-09-26T09:38:11.053Z,20.24
2022-09-26T09:40:41.439Z,20.15
2022-09-26T09:43:15.212Z,20.57
2022-09-26T09:45:47.383Z,20.46
2022-09-26T09:48:14.343Z,20.65
2022-09-26T09:50:53.781Z,20.96
2022-09-26T09:53:41.168Z,20.49
2022-09-26T09:56:14.124Z,20.33
2022-09-26T09:58:59.794Z,20.44
2022-09-26T10:01:28.126Z,20.34
2022-09-26T10:04:01.378Z,20.13
2022-09-26T10:06:45.265Z,20.39
2022-09-26T10:09:39.283Z,20.80
2022-09-26T10:12:19.457Z,21.17
2022-09-26T10:15:03.260Z,21.32
2022-09-26T10:17:32.009Z,21.06
2022-09-26T10:19:59.353Z,21.33
2022-09-26T10:22:37.958Z,21.34
2022-09-26T10:25:08.936Z,21.09
2022-09-26T10:27:38.110Z,21.18
2022-09-26T10:30:06.265Z,21.37
2022-09-26T10:32:33.617Z,21.54
2022-09-26T10:35:24.379Z,21.60
2022-09-26T10:38:01.945Z,21.14
2022-09-26T10:40:48.347Z,21.27
2022-09-26T10:43:22.877Z,21.44
2022-09-26T10:45:53.417Z,21.10
2022-09-26T10:48:24.468Z,21.12
2022-09-26T10:51:00.627Z,21.35
2022-09-26T10:53:34.396Z,21.25
2022-09-26T10:56:02.202Z,21.31
2022-09-26T10:58:30.091Z,20.58
2022-09-26T11:00:59.554Z,21.08
2022-09-26T11:03:40.414Z,20.70
2022-09-26T11:06:23.901Z,21.21
2022-09-26T11:08:54.110Z,21.17
2022-09-26T11:11:22.553Z,21.29
2022-09-26T11:13:55.904Z,21.03
2022-09-26T11:16:23.002Z,21.03
2022-09-26T11:18:59.067Z,21.44
2022-09-26T11:21:29.508Z,21.66
2022-09-26T11:24:03.193Z,21.80
2022-09-26T11:26:39.959Z,22.07
2022-09-26T11:29:14.958Z,21.66
2022-09-26T11:31:44.190Z,21.52
2022-09-26T11:34:14.096Z,21.94
2022-09-26T11:37:01.664Z,22.13
2022-09-26T11:39:37.717Z,22.48
2022-09-26T11:42:25.037Z,22.74
2022-09-26T11:44:54.031Z,22.17
2022-09-26T11:47:47.692Z,22.04
2022-09-26T11:50:24.184Z,22.46
2022-09-26T11:52:56.925Z,22.26
2022-09-26T11:55:42.560Z,22.49
2022-09-26T11:58:16.227Z,22.43
2022-09-26T12:01:01.890Z,22.17
2022-09-26T12:03:37.103Z,22.38
2022-09-26T12:06:04.463Z,21.70
2022-09-26T12:08:38.937Z,22.40
2022-09-26T12:11:19.321Z,22.60
2022-09-26T12:13:58.647Z,22.08
2022-09-26T12:16:26.757Z,22.28
2022-09-26T12:18:56.594Z,22.26
2022-09-26T12:21:23.294Z,21.80
2022-09-26T12:23:53.899Z,21.67
2022-09-26T12:26:21.359Z,22.18
2022-09-26T12:28:54.237Z,21.88
2022-09-26T12:31:21.798Z,21.96
2022-09-26T12:34:02.428Z,22.59
2022-09-26T12:36:31.279Z,22.28
2022-09-26T12:39:10.365Z,22.68
2022-09-26T12:41:44.924Z,22.62
2022-09-26T12:44:19.648Z,22.60
2022-09-26T12:46:53.745Z,22.43
2022-09-26T12:49:20.580Z,22.45
2022-09-26T12:51:48.947Z,22.61
2022-09-26T12:54:15.653Z,22.95
2022-09-26T12:56:54.911Z,23.04
2022-09-26T12:59:45.286Z,22.88
2022-09-26T13:02:12.503Z,22.41
2022-09-26T13:04:59.314Z,22.59
2022-09-26T13:07:43.838Z,22.78
2022-09-26T13:10:10.899Z,22.85
2022-09-26T13:12:52.885Z,22.71
2022-09-26T13:15:44.781Z,22.65
2022-09-26T13:18:16.308Z,22.45
2022-09-26T13:20:43.861Z,22.44
2022-09-26T13:23:19.695Z,22.28
2022-09-26T13:25:50.795Z,22.46
2022-09-26T13:28:21.262Z,22.63
2022-09-26T13:30:54.727Z,22.79
2022-09-26T13:33:30.047Z,22.22
2022-09-26T13:35:57.065Z,22.18
2022-09-26T13:38:43.254Z,22.09
2022-09-26T13:41:33.277Z,22.18
2022-09-26T13:44:05.100Z,21.87
2022-09-26T13:46:40.007Z,22.28
2022-09-26T13:49:07.190Z,22.11
2022-09-26T13:51:40.948Z,22.00
2022-09-26T13:54:19.807Z,21.99
2022-09-26T13:56:49.157Z,22.00
2022-09-26T13:59:17.912Z,22.20
2022-09-26T14:02:03.210Z,21.78
2022-09-26T14:04:36.349Z,22.10
2022-09-26T14:07:03.161Z,21.80
2022-09-26T14:09:45.584Z,21.89
2022-09-26T14:12:20.350Z,22.21
2022-09-26T14:14:51.182Z,22.10
2022-09-26T14:17:37.793Z,22.13
2022-09-26T14:20:05.820Z,22.35
2022-09-26T14:22:34.703Z,22.46
2022-09-26T14:25:02.506Z,22.40
2022-09-26T14:27:36.362Z,22.37
2022-09-26T14:30:22.593Z,22.18
2022-09-26T14:32:49.561Z,21.88
2022-09-26T14:35:17.051Z,22.19
2022-09-26T14:37:43.878Z,22.13
2022-09-26T14:40:10.837Z,22.10
2022-09-26T14:42:43.604Z,22.15
2022-09-26T14:45:16.700Z,22.16
2022-09-26T14:47:44.677Z,22.11
2022-09-26T14:50:16.397Z,22.21
2022-09-26T14:52:49.703Z,22.18
2022-09-26T14:55:16.681Z,22.45
2022-09-26T14:57:43.385Z,22.42
2022-09-26T15:00:29.198Z,22.20
2022-09-26T15:03:00.260Z,22.10
2022-09-26T15:05:28.170Z,22.10
2022-09-26T15:07:55.293Z,21.99
2022-09-26T15:10:23.928Z,22.04
2022-09-26T15:12:56.161Z,21.95
2022-09-26T15:15:50.553Z,22.04
2022-09-26T15:18:17.289Z,22.04
2022-09-26T15:20:44.915Z,22.01
2022-09-26T15:23:27.767Z,22.08
2022-09-26T15:25:56.340Z,21.93
2022-09-26T15:28:24.468Z,21.87
2022-09-26T15:31:11.827Z,21.93
2022-09-26T15:33:39.614Z,22.00
2022-09-26T15:36:09.393Z,22.02
2022-09-26T15:38:36.068Z,21.94
2022-09-26T15:41:04.319Z,21.91
2022-09-26T15:43:34.512Z,21.86
2022-09-26T15:46:07.302Z,21.90
2022-09-26T15:48:36.698Z,21.94
2022-09-26T15:51:28.677Z,21.90
2022-09-26T15:53:56.723Z,21.82
2022-09-26T15:56:23.387Z,21.84
2022-09-26T15:58:56.095Z,21.86
2022-09-26T16:01:25.770Z,21.85
2022-09-26T16:03:53.988Z,21.74
2022-09-26T16:06:20.731Z,21.75
2022-09-26T16:08:49.614Z,21.50
2022-09-26T16:11:16.688Z,21.66
2022-09-26T16:13:45.743Z,21.49
2022-09-26T16:16:14.243Z,21.55
2022-09-26T16:18:47.197Z,21.32
2022-09-26T16:21:15.063Z,21.34
2022-09-26T16:23:46.420Z,21.41
2022-09-26T16:26:40.405Z,21.40
2022-09-26T16:29:08.810Z,21.19
2022-09-26T16:31:39.361Z,20.95
2022-09-26T16:34:16.791Z,20.99
2022-09-26T16:36:43.779Z,21.02
2022-09-26T16:39:13.628Z,21.01
2022-09-26T16:42:02.435Z,20.77
2022-09-26T16:44:35.224Z,20.70
2022-09-26T16:47:05.266Z,20.49
2022-09-26T16:49:34.577Z,20.19
2022-09-26T16:52:10.567Z,20.32
2022-09-26T16:54:37.533Z,20.22
2022-09-26T16:57:04.210Z,20.07
2022-09-26T16:59:32.319Z,20.22
2022-09-26T17:02:00.177Z,20.20
2022-09-26T17:04:34.354Z,20.08
2022-09-26T17:07:09.593Z,20.04
2022-09-26T17:09:36.724Z,19.78
2022-09-26T17:12:03.821Z,19.76
2022-09-26T17:14:31.484Z,19.73
2022-09-26T17:16:58.300Z,19.48
2022-09-26T17:19:27.140Z,19.68
2022-09-26T17:21:54.961Z,19.43
2022-09-26T17:24:26.228Z,19.52
2022-09-26T17:27:05.258Z,19.46
2022-09-26T17:29:33.401Z,19.72
2022-09-26T17:32:00.746Z,19.42
2022-09-26T17:34:28.421Z,19.25
2022-09-26T17:36:56.891Z,19.00
2022-09-26T17:39:26.177Z,18.87
2022-09-26T17:41:53.524Z,19.17
2022-09-26T17:44:23.274Z,19.05
2022-09-26T17:46:51.640Z,18.92
2022-09-26T17:49:26.909Z,18.93
2022-09-26T17:51:56.255Z,19.05
2022-09-26T17:54:26.352Z,19.02
2022-09-26T17:56:53.215Z,18.96
2022-09-26T17:59:24.381Z,18.82
2022-09-26T18:01:52.519Z,18.77
2022-09-26T18:04:19.929Z,18.79
2022-09-26T18:06:46.725Z,18.61
2022-09-26T18:09:16.582Z,18.64
2022-09-26T18:11:44.360Z,18.71
2022-09-26T18:14:17.215Z,18.51
2022-09-26T18:16:46.551Z,18.38
2022-09-26T18:19:13.307Z,18.10
2022-09-26T18:21:40.604Z,18.11
2022-09-26T18:24:13.233Z,18.33
2022-09-26T18:26:47.642Z,18.16
2022-09-26T18:29:16.436Z,18.10
2022-09-26T18:31:45.279Z,17.89
2022-09-26T18:34:13.080Z,18.25
2022-09-26T18:36:40.563Z,18.08
2022-09-26T18:39:07.792Z,18.06
2022-09-26T18:41:35.280Z,17.86
2022-09-26T18:44:03.734Z,17.94
2022-09-26T18:46:30.781Z,18.01
2022-09-26T18:48:58.642Z,18.08
2022-09-26T18:51:26.229Z,18.15
2022-09-26T18:53:53.559Z,18.05
2022-09-26T18:56:40.188Z,18.11
2022-09-26T18:59:10.242Z,17.90
2022-09-26T19:01:38.526Z,17.78
2022-09-26T19:04:06.781Z,17.86
2022-09-26T19:06:37.666Z,17.73
2022-09-26T19:09:06.260Z,17.60
2022-09-26T19:11:35.624Z,17.73
2022-09-26T19:14:12.197Z,17.34
2022-09-26T19:16:39.646Z,17.27
2022-09-26T19:19:06.761Z,17.47
2022-09-26T19:21:39.432Z,17.45
2022-09-26T19:24:20.326Z,17.71
2022-09-26T19:26:48.399Z,17.78
2022-09-26T19:29:23.942Z,17.48
2022-09-26T19:31:51.668Z,17.70
2022-09-26T19:34:18.867Z,17.54
2022-09-26T19:36:45.787Z,17.54
2022-09-26T19:39:13.108Z,17.65
2022-09-26T19:41:46.229Z,17.34
2022-09-26T19:44:13.417Z,17.37
2022-09-26T19:46:40.805Z,17.55
2022-09-26T19:49:07.966Z,17.46
2022-09-26T19:51:40.655Z,17.58
2022-09-26T19:54:09.942Z,17.54
2022-09-26T19:56:36.862Z,17.30
2022-09-26T19:59:04.593Z,17.27
2022-09-26T20:01:31.935Z,17.16
2022-09-26T20:03:59.433Z,17.23
2022-09-26T20:06:26.274Z,17.51
2022-09-26T20:08:57.668Z,17.33
2022-09-26T20:11:27.645Z,17.34
2022-09-26T20:14:13.303Z,17.21
2022-09-26T20:16:41.545Z,17.18
2022-09-26T20:19:10.396Z,17.03
2022-09-26T20:21:37.262Z,17.04
2022-09-26T20:24:04.338Z,17.23
2022-09-26T20:26:32.714Z,17.24
2022-09-26T20:28:59.545Z,16.92
2022-09-26T20:31:27.630Z,17.12
2022-09-26T20:33:55.651Z,17.18
2022-09-26T20:36:24.748Z,16.96
2022-09-26T20:38:51.776Z,17.01
2022-09-26T20:41:18.597Z,17.00
2022-09-26T20:43:47.033Z,17.28
2022-09-26T20:46:14.987Z,16.94
2022-09-26T20:48:42.212Z,16.93
2022-09-26T20:51:13.948Z,17.03
2022-09-26T20:53:41.058Z,17.00
2022-09-26T20:56:18.580Z,16.76
2022-09-26T20:58:45.596Z,16.84
2022-09-26T21:01:13.789Z,16.81
2022-09-26T21:03:44.433Z,17.03
2022-09-26T21:06:22.520Z,16.85
2022-09-26T21:08:49.647Z,17.04
2022-09-26T21:11:17.611Z,17.05
2022-09-26T21:13:44.419Z,16.95
2022-09-26T21:16:14.935Z,16.98
2022-09-26T21:18:43.062Z,16.67
2022-09-26T21:21:13.586Z,16.82
2022-09-26T21:23:42.069Z,16.87
2022-09-26T21:26:19.008Z,16.90
2022-09-26T21:28:45.802Z,17.07
2022-09-26T21:31:39.126Z,17.06
2022-09-26T21:34:05.930Z,17.15
2022-09-26T21:36:35.187Z,16.99
2022-09-26T21:39:02.263Z,17.25
2022-09-26T21:41:29.430Z,17.14
2022-09-26T21:43:58.089Z,17.23
2022-09-26T21:46:27.181Z,17.22
2022-09-26T21:48:54.024Z,17.33
2022-09-26T21:51:21.540Z,17.28
2022-09-26T21:53:49.509Z,17.31
2022-09-26T21:56:17.607Z,17.19
2022-09-26T21:58:45.854Z,17.37
2022-09-26T22:01:14.166Z,17.36
2022-09-26T22:03:41.557Z,17.28
2022-09-26T22:06:11.773Z,17.22
2022-09-26T22:08:39.435Z,17.17
2022-09-26T22:11:07.559Z,17.05
2022-09-26T22:13:35.075Z,17.19
2022-09-26T22:16:08.657Z,17.30
2022-09-26T22:18:35.962Z,17.15
2022-09-26T22:21:04.447Z,17.38
2022-09-26T22:23:34.227Z,17.21
2022-09-26T22:26:01.256Z,17.23
2022-09-26T22:28:28.232Z,17.14
2022-09-26T22:30:55.530Z,17.08
2022-09-26T22:33:22.888Z,17.25
2022-09-26T22:35:50.107Z,17.35
2022-09-26T22:38:18.060Z,17.29
2022-09-26T22:40:45.755Z,17.46
2022-09-26T22:43:12.870Z,17.42
2022-09-26T22:45:39.659Z,17.01
2022-09-26T22:48:06.718Z,17.17
2022-09-26T22:50:33.514Z,17.22
2022-09-26T22:53:00.368Z,17.36
2022-09-26T22:55:27.633Z,17.22
2022-09-26T22:57:54.389Z,17.25
2022-09-26T23:00:21.255Z,17.21
2022-09-26T23:02:48.769Z,17.14
2022-09-26T23:05:15.664Z,17.22
2022-09-26T23:07:42.403Z,17.14
2022-09-26T23:10:10.453Z,17.19
2022-09-26T23:12:38.030Z,17.15
2022-09-26T23:15:04.968Z,17.09
2022-09-26T23:17:33.066Z,17.27
2022-09-26T23:19:59.749Z,17.32
2022-09-26T23:22:26.472Z,16.97
2022-09-26T23:24:53.949Z,17.35
2022-09-26T23:27:21.679Z,17.18
2022-09-26T23:29:48.449Z,17.23
2022-09-26T23:32:15.522Z,17.10
2022-09-26T23:34:43.143Z,17.23
2022-09-26T23:37:09.981Z,17.15
2022-09-26T23:39:36.990Z,17.13
2022-09-26T23:42:03.926Z,17.04
2022-09-26T23:44:32.332Z,17.24
2022-09-26T23:47:02.569Z,16.93
2022-09-26T23:49:29.329Z,17.09
2022-09-26T23:51:56.458Z,17.08
2022-09-26T23:54:23.468Z,17.07
2022-09-26T23:56:50.255Z,16.92
2022-09-26T23:59:16.971Z,17.01
